<?xml version="1.0" encoding="UTF-8" standalone="no" ?>
<gpx xmlns="http://www.topografix.com/GPX/1/1" xmlns:xsi="http://www.w3.org/2001/XMLSchema-instance" xsi:schemaLocation="http://www.topografix.com/GPX/1/1 http://www.topografix.com/GPX/1/1/gpx.xsd" version="1.1" creator="VisuGPX - https://www.visugpx.com">
  <metadata>
    <name>La Bloue</name>
    <desc><![CDATA[20 Km; Dénivelé: 830 m; IBP: 87]]></desc>
  </metadata>
  <trk>
    <name><![CDATA[trace la bloue 20km x 830m]]></name>
    <extensions>
      <line xmlns="http://www.topografix.com/GPX/gpx_style/0/2">
        <width>4</width>
      </line>
    </extensions>
    <trkseg>
      <trkpt lat="45.30621" lon="4.1151">
        <ele>443</ele>
        <time>2025-12-02T21:13:43.550Z</time>
      </trkpt>
      <trkpt lat="45.30621" lon="4.1151">
        <ele>443</ele>
        <time>2025-12-30T10:55:12.887Z</time>
      </trkpt>
      <trkpt lat="45.30604" lon="4.114">
        <ele>447.1</ele>
      </trkpt>
      <trkpt lat="45.30717" lon="4.11318">
        <ele>449.9</ele>
      </trkpt>
      <trkpt lat="45.30819" lon="4.11281">
        <ele>452</ele>
      </trkpt>
      <trkpt lat="45.30826" lon="4.11211">
        <ele>453.3</ele>
      </trkpt>
      <trkpt lat="45.30846" lon="4.11101">
        <ele>455.1</ele>
      </trkpt>
      <trkpt lat="45.30899" lon="4.11128">
        <ele>456.1</ele>
      </trkpt>
      <trkpt lat="45.30968" lon="4.11021">
        <ele>459.7</ele>
      </trkpt>
      <trkpt lat="45.30994" lon="4.10985">
        <ele>461.6</ele>
      </trkpt>
      <trkpt lat="45.3101" lon="4.10916">
        <ele>465.6</ele>
      </trkpt>
      <trkpt lat="45.31083" lon="4.10935">
        <ele>468.9</ele>
      </trkpt>
      <trkpt lat="45.31134" lon="4.10922">
        <ele>470.9</ele>
      </trkpt>
      <trkpt lat="45.31165" lon="4.10908">
        <ele>472.3</ele>
      </trkpt>
      <trkpt lat="45.31165" lon="4.10908">
        <ele>472.3</ele>
        <time>2025-12-02T21:13:43.550Z</time>
      </trkpt>
      <trkpt lat="45.31161" lon="4.10862">
        <ele>473.8</ele>
        <time>2025-12-02T21:14:16.041Z</time>
      </trkpt>
      <trkpt lat="45.31253" lon="4.10736">
        <ele>484.2</ele>
        <time>2025-12-02T21:16:24.595Z</time>
      </trkpt>
      <trkpt lat="45.31346" lon="4.10637">
        <ele>499.8</ele>
        <time>2025-12-02T21:18:21.508Z</time>
      </trkpt>
      <trkpt lat="45.31399" lon="4.10559">
        <ele>502.6</ele>
        <time>2025-12-02T21:19:38.168Z</time>
      </trkpt>
      <trkpt lat="45.31442" lon="4.10496">
        <ele>510.4</ele>
        <time>2025-12-02T21:20:40.060Z</time>
      </trkpt>
      <trkpt lat="45.31427" lon="4.10457">
        <ele>515.5</ele>
        <time>2025-12-02T21:21:12.146Z</time>
      </trkpt>
      <trkpt lat="45.31328" lon="4.10464">
        <ele>525.6</ele>
        <time>2025-12-02T21:22:52.162Z</time>
      </trkpt>
      <trkpt lat="45.31256" lon="4.10437">
        <ele>538.4</ele>
        <time>2025-12-02T21:24:07.286Z</time>
      </trkpt>
      <trkpt lat="45.31194" lon="4.10441">
        <ele>531.6</ele>
        <time>2025-12-02T21:25:09.013Z</time>
      </trkpt>
      <trkpt lat="45.31077" lon="4.1039">
        <ele>531.3</ele>
        <time>2025-12-02T21:27:12.099Z</time>
      </trkpt>
      <trkpt lat="45.31051" lon="4.10322">
        <ele>541.4</ele>
        <time>2025-12-02T21:28:06.705Z</time>
      </trkpt>
      <trkpt lat="45.30976" lon="4.1028">
        <ele>538.8</ele>
        <time>2025-12-02T21:29:28.075Z</time>
      </trkpt>
      <trkpt lat="45.30881" lon="4.10219">
        <ele>537.2</ele>
        <time>2025-12-02T21:31:12.040Z</time>
      </trkpt>
      <trkpt lat="45.30943" lon="4.10175">
        <ele>556.8</ele>
        <time>2025-12-02T21:32:24.008Z</time>
      </trkpt>
      <trkpt lat="45.30954" lon="4.10123">
        <ele>572</ele>
        <time>2025-12-02T21:33:04.237Z</time>
      </trkpt>
      <trkpt lat="45.31036" lon="4.10141">
        <ele>582.7</ele>
        <time>2025-12-02T21:34:27.956Z</time>
      </trkpt>
      <trkpt lat="45.31057" lon="4.10146">
        <ele>585</ele>
        <time>2025-12-02T21:34:49.353Z</time>
      </trkpt>
      <trkpt lat="45.31184" lon="4.10106">
        <ele>628.2</ele>
        <time>2025-12-02T21:37:05.932Z</time>
      </trkpt>
      <trkpt lat="45.31251" lon="4.10204">
        <ele>606.8</ele>
        <time>2025-12-02T21:38:43.749Z</time>
      </trkpt>
      <trkpt lat="45.31294" lon="4.10202">
        <ele>589.4</ele>
        <time>2025-12-02T21:39:29.837Z</time>
      </trkpt>
      <trkpt lat="45.31329" lon="4.10175">
        <ele>577.3</ele>
        <time>2025-12-02T21:40:11.081Z</time>
      </trkpt>
      <trkpt lat="45.31371" lon="4.10079">
        <ele>598.4</ele>
        <time>2025-12-02T21:41:33.147Z</time>
      </trkpt>
      <trkpt lat="45.31399" lon="4.10028">
        <ele>607.6</ele>
        <time>2025-12-02T21:42:19.396Z</time>
      </trkpt>
      <trkpt lat="45.31423" lon="4.09934">
        <ele>618.3</ele>
        <time>2025-12-02T21:43:29.928Z</time>
      </trkpt>
      <trkpt lat="45.31515" lon="4.09865">
        <ele>632.4</ele>
        <time>2025-12-02T21:45:15.493Z</time>
      </trkpt>
      <trkpt lat="45.3159" lon="4.09797">
        <ele>641.7</ele>
        <time>2025-12-02T21:46:44.432Z</time>
      </trkpt>
      <trkpt lat="45.31625" lon="4.09798">
        <ele>634.5</ele>
        <time>2025-12-02T21:47:20.262Z</time>
      </trkpt>
      <trkpt lat="45.3167" lon="4.09834">
        <ele>611.6</ele>
        <time>2025-12-02T21:48:16.146Z</time>
      </trkpt>
      <trkpt lat="45.31737" lon="4.09806">
        <ele>611.4</ele>
        <time>2025-12-02T21:49:25.903Z</time>
      </trkpt>
      <trkpt lat="45.31783" lon="4.09795">
        <ele>616.1</ele>
        <time>2025-12-02T21:50:12.601Z</time>
      </trkpt>
      <trkpt lat="45.31817" lon="4.09767">
        <ele>617.7</ele>
        <time>2025-12-02T21:50:51.543Z</time>
      </trkpt>
      <trkpt lat="45.31851" lon="4.09712">
        <ele>625.5</ele>
        <time>2025-12-02T21:51:43.817Z</time>
      </trkpt>
      <trkpt lat="45.3197" lon="4.09708">
        <ele>641.3</ele>
        <time>2025-12-02T21:53:43.580Z</time>
      </trkpt>
      <trkpt lat="45.32024" lon="4.09652">
        <ele>648.7</ele>
        <time>2025-12-02T21:54:51.069Z</time>
      </trkpt>
      <trkpt lat="45.3208" lon="4.09577">
        <ele>659.1</ele>
        <time>2025-12-02T21:56:08.429Z</time>
      </trkpt>
      <trkpt lat="45.32132" lon="4.09533">
        <ele>675.5</ele>
        <time>2025-12-02T21:57:10.980Z</time>
      </trkpt>
      <trkpt lat="45.32147" lon="4.095">
        <ele>677.6</ele>
        <time>2025-12-02T21:57:38.710Z</time>
      </trkpt>
      <trkpt lat="45.32162" lon="4.09494">
        <ele>683.9</ele>
        <time>2025-12-02T21:57:55.890Z</time>
      </trkpt>
      <trkpt lat="45.32167" lon="4.09462">
        <ele>684.4</ele>
        <time>2025-12-02T21:58:18.570Z</time>
      </trkpt>
      <trkpt lat="45.32204" lon="4.09453">
        <ele>694.4</ele>
        <time>2025-12-02T21:58:57.208Z</time>
      </trkpt>
      <trkpt lat="45.32257" lon="4.09361">
        <ele>702.9</ele>
        <time>2025-12-02T22:00:21.533Z</time>
      </trkpt>
      <trkpt lat="45.32284" lon="4.09353">
        <ele>701.2</ele>
        <time>2025-12-02T22:00:48.266Z</time>
      </trkpt>
      <trkpt lat="45.3234" lon="4.09127">
        <ele>696.3</ele>
        <time>2025-12-02T22:03:37.171Z</time>
      </trkpt>
      <trkpt lat="45.32367" lon="4.0896">
        <ele>705.8</ele>
        <time>2025-12-02T22:05:38.118Z</time>
      </trkpt>
      <trkpt lat="45.32381" lon="4.08811">
        <ele>727</ele>
        <time>2025-12-02T22:07:25.057Z</time>
      </trkpt>
      <trkpt lat="45.32367" lon="4.08659">
        <ele>745.1</ele>
        <time>2025-12-02T22:09:14.698Z</time>
      </trkpt>
      <trkpt lat="45.32348" lon="4.08596">
        <ele>752.6</ele>
        <time>2025-12-02T22:10:03.173Z</time>
      </trkpt>
      <trkpt lat="45.32302" lon="4.08496">
        <ele>766.5</ele>
        <time>2025-12-02T22:11:27.735Z</time>
      </trkpt>
      <trkpt lat="45.32272" lon="4.08433">
        <ele>776.5</ele>
        <time>2025-12-02T22:12:22.862Z</time>
      </trkpt>
      <trkpt lat="45.32261" lon="4.08388">
        <ele>782.3</ele>
        <time>2025-12-02T22:12:56.234Z</time>
      </trkpt>
      <trkpt lat="45.32258" lon="4.08298">
        <ele>786.6</ele>
        <time>2025-12-02T22:13:59.938Z</time>
      </trkpt>
      <trkpt lat="45.32254" lon="4.08214">
        <ele>786.2</ele>
        <time>2025-12-02T22:14:59.208Z</time>
      </trkpt>
      <trkpt lat="45.32265" lon="4.08133">
        <ele>785.9</ele>
        <time>2025-12-02T22:15:57.465Z</time>
      </trkpt>
      <trkpt lat="45.32256" lon="4.08033">
        <ele>794.7</ele>
        <time>2025-12-02T22:17:09.191Z</time>
      </trkpt>
      <trkpt lat="45.32254" lon="4.07966">
        <ele>799.9</ele>
        <time>2025-12-02T22:17:56.091Z</time>
      </trkpt>
      <trkpt lat="45.32266" lon="4.07869">
        <ele>806.2</ele>
        <time>2025-12-02T22:19:06.056Z</time>
      </trkpt>
      <trkpt lat="45.32162" lon="4.07823">
        <ele>810.1</ele>
        <time>2025-12-02T22:20:55.085Z</time>
      </trkpt>
      <trkpt lat="45.32102" lon="4.0783">
        <ele>807.1</ele>
        <time>2025-12-02T22:21:54.988Z</time>
      </trkpt>
      <trkpt lat="45.32037" lon="4.0786">
        <ele>802.7</ele>
        <time>2025-12-02T22:23:03.256Z</time>
      </trkpt>
      <trkpt lat="45.32012" lon="4.07956">
        <ele>792.1</ele>
        <time>2025-12-02T22:24:15.983Z</time>
      </trkpt>
      <trkpt lat="45.31982" lon="4.08004">
        <ele>787.5</ele>
        <time>2025-12-02T22:25:01.217Z</time>
      </trkpt>
      <trkpt lat="45.31972" lon="4.08108">
        <ele>778.7</ele>
        <time>2025-12-02T22:26:15.858Z</time>
      </trkpt>
      <trkpt lat="45.3194" lon="4.08157">
        <ele>776.5</ele>
        <time>2025-12-02T22:27:02.723Z</time>
      </trkpt>
      <trkpt lat="45.31886" lon="4.08158">
        <ele>779.5</ele>
        <time>2025-12-02T22:27:56.528Z</time>
      </trkpt>
      <trkpt lat="45.31843" lon="4.08163">
        <ele>780.4</ele>
        <time>2025-12-02T22:28:39.911Z</time>
      </trkpt>
      <trkpt lat="45.31813" lon="4.08178">
        <ele>778.4</ele>
        <time>2025-12-02T22:29:11.890Z</time>
      </trkpt>
      <trkpt lat="45.31792" lon="4.08269">
        <ele>768.5</ele>
        <time>2025-12-02T22:30:19.973Z</time>
      </trkpt>
      <trkpt lat="45.31792" lon="4.0836">
        <ele>765.9</ele>
        <time>2025-12-02T22:31:23.920Z</time>
      </trkpt>
      <trkpt lat="45.31808" lon="4.08453">
        <ele>766.9</ele>
        <time>2025-12-02T22:32:31.150Z</time>
      </trkpt>
      <trkpt lat="45.31772" lon="4.08672">
        <ele>761.9</ele>
        <time>2025-12-02T22:35:09.342Z</time>
      </trkpt>
      <trkpt lat="45.31783" lon="4.08852">
        <ele>759.1</ele>
        <time>2025-12-02T22:37:16.624Z</time>
      </trkpt>
      <trkpt lat="45.31724" lon="4.08887">
        <ele>765.2</ele>
        <time>2025-12-02T22:38:20.430Z</time>
      </trkpt>
      <trkpt lat="45.31718" lon="4.08774">
        <ele>770.1</ele>
        <time>2025-12-02T22:39:39.824Z</time>
      </trkpt>
      <trkpt lat="45.31668" lon="4.08706">
        <ele>778</ele>
        <time>2025-12-02T22:40:50.021Z</time>
      </trkpt>
      <trkpt lat="45.3164" lon="4.08759">
        <ele>777.4</ele>
        <time>2025-12-02T22:41:36.719Z</time>
      </trkpt>
      <trkpt lat="45.31583" lon="4.08814">
        <ele>781</ele>
        <time>2025-12-02T22:42:46.027Z</time>
      </trkpt>
      <trkpt lat="45.31539" lon="4.08906">
        <ele>777.3</ele>
        <time>2025-12-02T22:44:04.397Z</time>
      </trkpt>
      <trkpt lat="45.31499" lon="4.08923">
        <ele>778.4</ele>
        <time>2025-12-02T22:44:46.185Z</time>
      </trkpt>
      <trkpt lat="45.3146" lon="4.09015">
        <ele>770.5</ele>
        <time>2025-12-02T22:46:01.855Z</time>
      </trkpt>
      <trkpt lat="45.31399" lon="4.09146">
        <ele>764.8</ele>
        <time>2025-12-02T22:47:52.610Z</time>
      </trkpt>
      <trkpt lat="45.31387" lon="4.09176">
        <ele>761.6</ele>
        <time>2025-12-02T22:48:17.694Z</time>
      </trkpt>
      <trkpt lat="45.31354" lon="4.09194">
        <ele>760.7</ele>
        <time>2025-12-02T22:48:52.342Z</time>
      </trkpt>
      <trkpt lat="45.31319" lon="4.09123">
        <ele>768.9</ele>
        <time>2025-12-02T22:49:53.589Z</time>
      </trkpt>
      <trkpt lat="45.31306" lon="4.08987">
        <ele>769.2</ele>
        <time>2025-12-02T22:51:30.514Z</time>
      </trkpt>
      <trkpt lat="45.31321" lon="4.08897">
        <ele>768.1</ele>
        <time>2025-12-02T22:52:35.321Z</time>
      </trkpt>
      <trkpt lat="45.31302" lon="4.08873">
        <ele>764.1</ele>
        <time>2025-12-02T22:53:00.515Z</time>
      </trkpt>
      <trkpt lat="45.31195" lon="4.08893">
        <ele>753.1</ele>
        <time>2025-12-02T22:54:49.561Z</time>
      </trkpt>
      <trkpt lat="45.31174" lon="4.08853">
        <ele>758.4</ele>
        <time>2025-12-02T22:55:24.722Z</time>
      </trkpt>
      <trkpt lat="45.31185" lon="4.08793">
        <ele>767.6</ele>
        <time>2025-12-02T22:56:09.102Z</time>
      </trkpt>
      <trkpt lat="45.31129" lon="4.0874">
        <ele>765.8</ele>
        <time>2025-12-02T22:57:16.233Z</time>
      </trkpt>
      <trkpt lat="45.31098" lon="4.08648">
        <ele>762.8</ele>
        <time>2025-12-02T22:58:27.987Z</time>
      </trkpt>
      <trkpt lat="45.31063" lon="4.08525">
        <ele>753.5</ele>
        <time>2025-12-02T23:00:01.617Z</time>
      </trkpt>
      <trkpt lat="45.3104" lon="4.0849">
        <ele>750.4</ele>
        <time>2025-12-02T23:00:36.092Z</time>
      </trkpt>
      <trkpt lat="45.31037" lon="4.08433">
        <ele>750.8</ele>
        <time>2025-12-02T23:01:15.895Z</time>
      </trkpt>
      <trkpt lat="45.31011" lon="4.08421">
        <ele>748.8</ele>
        <time>2025-12-02T23:01:43.321Z</time>
      </trkpt>
      <trkpt lat="45.30981" lon="4.08435">
        <ele>746.5</ele>
        <time>2025-12-02T23:02:14.772Z</time>
      </trkpt>
      <trkpt lat="45.30916" lon="4.08553">
        <ele>734.4</ele>
        <time>2025-12-02T23:04:00.985Z</time>
      </trkpt>
      <trkpt lat="45.30878" lon="4.08552">
        <ele>741.5</ele>
        <time>2025-12-02T23:04:39.342Z</time>
      </trkpt>
      <trkpt lat="45.308" lon="4.08744">
        <ele>728.9</ele>
        <time>2025-12-02T23:07:16.016Z</time>
      </trkpt>
      <trkpt lat="45.30762" lon="4.08785">
        <ele>729.1</ele>
        <time>2025-12-02T23:08:03.386Z</time>
      </trkpt>
      <trkpt lat="45.30564" lon="4.08826">
        <ele>734.5</ele>
        <time>2025-12-02T23:11:23.500Z</time>
      </trkpt>
      <trkpt lat="45.30403" lon="4.08943">
        <ele>715.5</ele>
        <time>2025-12-02T23:14:25.754Z</time>
      </trkpt>
      <trkpt lat="45.30342" lon="4.09143">
        <ele>684.7</ele>
        <time>2025-12-02T23:17:01.854Z</time>
      </trkpt>
      <trkpt lat="45.30245" lon="4.09119">
        <ele>692</ele>
        <time>2025-12-02T23:18:40.615Z</time>
      </trkpt>
      <trkpt lat="45.30192" lon="4.09089">
        <ele>687.2</ele>
        <time>2025-12-02T23:19:37.953Z</time>
      </trkpt>
      <trkpt lat="45.30138" lon="4.09013">
        <ele>679</ele>
        <time>2025-12-02T23:20:54.926Z</time>
      </trkpt>
      <trkpt lat="45.30053" lon="4.09018">
        <ele>665.2</ele>
        <time>2025-12-02T23:22:20.983Z</time>
      </trkpt>
      <trkpt lat="45.30008" lon="4.09051">
        <ele>659</ele>
        <time>2025-12-02T23:23:11.806Z</time>
      </trkpt>
      <trkpt lat="45.30006" lon="4.09081">
        <ele>658.6</ele>
        <time>2025-12-02T23:23:32.873Z</time>
      </trkpt>
      <trkpt lat="45.3004" lon="4.09178">
        <ele>649.8</ele>
        <time>2025-12-02T23:24:50.016Z</time>
      </trkpt>
      <trkpt lat="45.30014" lon="4.0924">
        <ele>634.6</ele>
        <time>2025-12-02T23:25:42.307Z</time>
      </trkpt>
      <trkpt lat="45.3002" lon="4.09257">
        <ele>632.2</ele>
        <time>2025-12-02T23:25:55.591Z</time>
      </trkpt>
      <trkpt lat="45.30016" lon="4.09284">
        <ele>625.9</ele>
        <time>2025-12-02T23:26:15.805Z</time>
      </trkpt>
      <trkpt lat="45.30037" lon="4.09337">
        <ele>618.3</ele>
        <time>2025-12-02T23:26:59.772Z</time>
      </trkpt>
      <trkpt lat="45.3" lon="4.09367">
        <ele>605.5</ele>
        <time>2025-12-02T23:27:44.320Z</time>
      </trkpt>
      <trkpt lat="45.29975" lon="4.09374">
        <ele>601.8</ele>
        <time>2025-12-02T23:28:09.751Z</time>
      </trkpt>
      <trkpt lat="45.29951" lon="4.09315">
        <ele>609.6</ele>
        <time>2025-12-02T23:28:57.898Z</time>
      </trkpt>
      <trkpt lat="45.29926" lon="4.09267">
        <ele>614.6</ele>
        <time>2025-12-02T23:29:40.546Z</time>
      </trkpt>
      <trkpt lat="45.29831" lon="4.0934">
        <ele>589.5</ele>
        <time>2025-12-02T23:31:30.318Z</time>
      </trkpt>
      <trkpt lat="45.29756" lon="4.09402">
        <ele>585.4</ele>
        <time>2025-12-02T23:32:57.261Z</time>
      </trkpt>
      <trkpt lat="45.29704" lon="4.09398">
        <ele>584.7</ele>
        <time>2025-12-02T23:33:49.394Z</time>
      </trkpt>
      <trkpt lat="45.29674" lon="4.0938">
        <ele>585.7</ele>
        <time>2025-12-02T23:34:21.772Z</time>
      </trkpt>
      <trkpt lat="45.29629" lon="4.09382">
        <ele>581.3</ele>
        <time>2025-12-02T23:35:07.288Z</time>
      </trkpt>
      <trkpt lat="45.29584" lon="4.09428">
        <ele>569.9</ele>
        <time>2025-12-02T23:36:03.744Z</time>
      </trkpt>
      <trkpt lat="45.29557" lon="4.09483">
        <ele>561.5</ele>
        <time>2025-12-02T23:36:51.444Z</time>
      </trkpt>
      <trkpt lat="45.29511" lon="4.09366">
        <ele>572.3</ele>
        <time>2025-12-02T23:38:26.147Z</time>
      </trkpt>
      <trkpt lat="45.29486" lon="4.09291">
        <ele>582.6</ele>
        <time>2025-12-02T23:39:25.248Z</time>
      </trkpt>
      <trkpt lat="45.29383" lon="4.09197">
        <ele>583.8</ele>
        <time>2025-12-02T23:41:27.965Z</time>
      </trkpt>
      <trkpt lat="45.29384" lon="4.09144">
        <ele>588.5</ele>
        <time>2025-12-02T23:42:05.689Z</time>
      </trkpt>
      <trkpt lat="45.29414" lon="4.0904">
        <ele>590.2</ele>
        <time>2025-12-02T23:43:24.943Z</time>
      </trkpt>
      <trkpt lat="45.29464" lon="4.08988">
        <ele>587.3</ele>
        <time>2025-12-02T23:44:26.797Z</time>
      </trkpt>
      <trkpt lat="45.29484" lon="4.08943">
        <ele>572.8</ele>
        <time>2025-12-02T23:45:06.647Z</time>
      </trkpt>
      <trkpt lat="45.296" lon="4.08887">
        <ele>574.9</ele>
        <time>2025-12-02T23:47:09.241Z</time>
      </trkpt>
      <trkpt lat="45.29693" lon="4.08831">
        <ele>594.7</ele>
        <time>2025-12-02T23:48:51.995Z</time>
      </trkpt>
      <trkpt lat="45.29749" lon="4.08751">
        <ele>598.5</ele>
        <time>2025-12-02T23:50:11.311Z</time>
      </trkpt>
      <trkpt lat="45.29798" lon="4.08686">
        <ele>601.6</ele>
        <time>2025-12-02T23:51:18.288Z</time>
      </trkpt>
      <trkpt lat="45.29827" lon="4.08662">
        <ele>609.5</ele>
        <time>2025-12-02T23:51:53.131Z</time>
      </trkpt>
      <trkpt lat="45.29864" lon="4.08676">
        <ele>627.5</ele>
        <time>2025-12-02T23:52:34.550Z</time>
      </trkpt>
      <trkpt lat="45.29853" lon="4.08606">
        <ele>609.4</ele>
        <time>2025-12-02T23:53:27.956Z</time>
      </trkpt>
      <trkpt lat="45.29883" lon="4.08553">
        <ele>608.8</ele>
        <time>2025-12-02T23:54:15.963Z</time>
      </trkpt>
      <trkpt lat="45.29935" lon="4.08427">
        <ele>590.6</ele>
        <time>2025-12-02T23:55:59.912Z</time>
      </trkpt>
      <trkpt lat="45.29989" lon="4.08437">
        <ele>606.8</ele>
        <time>2025-12-02T23:56:55.964Z</time>
      </trkpt>
      <trkpt lat="45.30004" lon="4.0843">
        <ele>608.9</ele>
        <time>2025-12-02T23:57:12.327Z</time>
      </trkpt>
      <trkpt lat="45.30002" lon="4.08396">
        <ele>600.7</ele>
        <time>2025-12-02T23:57:37.527Z</time>
      </trkpt>
      <trkpt lat="45.30091" lon="4.08329">
        <ele>614.5</ele>
        <time>2025-12-02T23:59:18.900Z</time>
      </trkpt>
      <trkpt lat="45.30088" lon="4.0826">
        <ele>603</ele>
        <time>2025-12-03T00:00:08.577Z</time>
      </trkpt>
      <trkpt lat="45.30096" lon="4.08205">
        <ele>599</ele>
        <time>2025-12-03T00:00:48.742Z</time>
      </trkpt>
      <trkpt lat="45.30111" lon="4.0816">
        <ele>600.3</ele>
        <time>2025-12-03T00:01:23.869Z</time>
      </trkpt>
      <trkpt lat="45.30099" lon="4.08151">
        <ele>594.9</ele>
        <time>2025-12-03T00:01:37.946Z</time>
      </trkpt>
      <trkpt lat="45.30083" lon="4.08178">
        <ele>591.1</ele>
        <time>2025-12-03T00:02:03.097Z</time>
      </trkpt>
      <trkpt lat="45.30053" lon="4.0824">
        <ele>589</ele>
        <time>2025-12-03T00:02:56.112Z</time>
      </trkpt>
      <trkpt lat="45.29973" lon="4.08258">
        <ele>567.7</ele>
        <time>2025-12-03T00:04:19.164Z</time>
      </trkpt>
      <trkpt lat="45.29926" lon="4.08307">
        <ele>562.4</ele>
        <time>2025-12-03T00:05:17.207Z</time>
      </trkpt>
      <trkpt lat="45.29894" lon="4.08331">
        <ele>559.5</ele>
        <time>2025-12-03T00:05:54.462Z</time>
      </trkpt>
      <trkpt lat="45.29873" lon="4.08329">
        <ele>556.6</ele>
        <time>2025-12-03T00:06:15.188Z</time>
      </trkpt>
      <trkpt lat="45.29837" lon="4.08366">
        <ele>557.5</ele>
        <time>2025-12-03T00:06:59.575Z</time>
      </trkpt>
      <trkpt lat="45.29805" lon="4.08445">
        <ele>562.6</ele>
        <time>2025-12-03T00:08:03.625Z</time>
      </trkpt>
      <trkpt lat="45.29778" lon="4.08609">
        <ele>577.9</ele>
        <time>2025-12-03T00:10:02.759Z</time>
      </trkpt>
      <trkpt lat="45.29732" lon="4.08664">
        <ele>568.8</ele>
        <time>2025-12-03T00:11:03.773Z</time>
      </trkpt>
      <trkpt lat="45.29689" lon="4.08705">
        <ele>558.9</ele>
        <time>2025-12-03T00:11:56.787Z</time>
      </trkpt>
      <trkpt lat="45.29659" lon="4.08757">
        <ele>556.5</ele>
        <time>2025-12-03T00:12:44.131Z</time>
      </trkpt>
      <trkpt lat="45.29563" lon="4.08798">
        <ele>540.1</ele>
        <time>2025-12-03T00:14:24.921Z</time>
      </trkpt>
      <trkpt lat="45.29498" lon="4.08783">
        <ele>537.7</ele>
        <time>2025-12-03T00:15:31.793Z</time>
      </trkpt>
      <trkpt lat="45.2944" lon="4.08783">
        <ele>538.3</ele>
        <time>2025-12-03T00:16:29.726Z</time>
      </trkpt>
      <trkpt lat="45.29361" lon="4.08831">
        <ele>529.2</ele>
        <time>2025-12-03T00:17:56.247Z</time>
      </trkpt>
      <trkpt lat="45.29287" lon="4.08807">
        <ele>539.9</ele>
        <time>2025-12-03T00:19:12.194Z</time>
      </trkpt>
      <trkpt lat="45.29232" lon="4.08853">
        <ele>539.5</ele>
        <time>2025-12-03T00:20:15.835Z</time>
      </trkpt>
      <trkpt lat="45.29166" lon="4.08921">
        <ele>545.7</ele>
        <time>2025-12-03T00:21:38.133Z</time>
      </trkpt>
      <trkpt lat="45.2914" lon="4.08929">
        <ele>553.5</ele>
        <time>2025-12-03T00:22:05.550Z</time>
      </trkpt>
      <trkpt lat="45.29071" lon="4.08925">
        <ele>575.7</ele>
        <time>2025-12-03T00:23:17.705Z</time>
      </trkpt>
      <trkpt lat="45.29001" lon="4.08923">
        <ele>583.1</ele>
        <time>2025-12-03T00:24:28.193Z</time>
      </trkpt>
      <trkpt lat="45.28939" lon="4.08867">
        <ele>593.7</ele>
        <time>2025-12-03T00:25:41.667Z</time>
      </trkpt>
      <trkpt lat="45.28899" lon="4.08837">
        <ele>596.2</ele>
        <time>2025-12-03T00:26:27.206Z</time>
      </trkpt>
      <trkpt lat="45.28873" lon="4.0875">
        <ele>596.7</ele>
        <time>2025-12-03T00:27:33.995Z</time>
      </trkpt>
      <trkpt lat="45.28879" lon="4.087">
        <ele>601.3</ele>
        <time>2025-12-03T00:28:09.543Z</time>
      </trkpt>
      <trkpt lat="45.28784" lon="4.08697">
        <ele>587.8</ele>
        <time>2025-12-03T00:29:44.730Z</time>
      </trkpt>
      <trkpt lat="45.28706" lon="4.08721">
        <ele>586.3</ele>
        <time>2025-12-03T00:31:04.717Z</time>
      </trkpt>
      <trkpt lat="45.28725" lon="4.08618">
        <ele>599</ele>
        <time>2025-12-03T00:32:20.140Z</time>
      </trkpt>
      <trkpt lat="45.28744" lon="4.08491">
        <ele>611.2</ele>
        <time>2025-12-03T00:33:52.263Z</time>
      </trkpt>
      <trkpt lat="45.28727" lon="4.08388">
        <ele>620.1</ele>
        <time>2025-12-03T00:35:07.248Z</time>
      </trkpt>
      <trkpt lat="45.2873" lon="4.08274">
        <ele>627.3</ele>
        <time>2025-12-03T00:36:27.524Z</time>
      </trkpt>
      <trkpt lat="45.2873" lon="4.08243">
        <ele>630</ele>
        <time>2025-12-03T00:36:49.640Z</time>
      </trkpt>
      <trkpt lat="45.28703" lon="4.08166">
        <ele>644.5</ele>
        <time>2025-12-03T00:37:51.970Z</time>
      </trkpt>
      <trkpt lat="45.28672" lon="4.08121">
        <ele>654.4</ele>
        <time>2025-12-03T00:38:37.006Z</time>
      </trkpt>
      <trkpt lat="45.28649" lon="4.08054">
        <ele>661.4</ele>
        <time>2025-12-03T00:39:30.049Z</time>
      </trkpt>
      <trkpt lat="45.28658" lon="4.08002">
        <ele>665.5</ele>
        <time>2025-12-03T00:40:07.869Z</time>
      </trkpt>
      <trkpt lat="45.28543" lon="4.07955">
        <ele>654.2</ele>
        <time>2025-12-03T00:42:08.279Z</time>
      </trkpt>
      <trkpt lat="45.28529" lon="4.0792">
        <ele>651.2</ele>
        <time>2025-12-03T00:42:37.113Z</time>
      </trkpt>
      <trkpt lat="45.2847" lon="4.07939">
        <ele>641.4</ele>
        <time>2025-12-03T00:43:38.396Z</time>
      </trkpt>
      <trkpt lat="45.28447" lon="4.0796">
        <ele>637.6</ele>
        <time>2025-12-03T00:44:05.705Z</time>
      </trkpt>
      <trkpt lat="45.28416" lon="4.07952">
        <ele>632.6</ele>
        <time>2025-12-03T00:44:37.150Z</time>
      </trkpt>
      <trkpt lat="45.28381" lon="4.07988">
        <ele>628.6</ele>
        <time>2025-12-03T00:45:20.540Z</time>
      </trkpt>
      <trkpt lat="45.28413" lon="4.07988">
        <ele>631.8</ele>
        <time>2025-12-03T00:45:52.497Z</time>
      </trkpt>
      <trkpt lat="45.28407" lon="4.08114">
        <ele>627.4</ele>
        <time>2025-12-03T00:47:21.332Z</time>
      </trkpt>
      <trkpt lat="45.28432" lon="4.082">
        <ele>626.8</ele>
        <time>2025-12-03T00:48:27.452Z</time>
      </trkpt>
      <trkpt lat="45.28431" lon="4.08265">
        <ele>622.7</ele>
        <time>2025-12-03T00:49:12.966Z</time>
      </trkpt>
      <trkpt lat="45.28452" lon="4.08375">
        <ele>619.1</ele>
        <time>2025-12-03T00:50:33.270Z</time>
      </trkpt>
      <trkpt lat="45.28529" lon="4.08532">
        <ele>608.2</ele>
        <time>2025-12-03T00:52:48.314Z</time>
      </trkpt>
      <trkpt lat="45.28566" lon="4.08584">
        <ele>603.2</ele>
        <time>2025-12-03T00:53:40.730Z</time>
      </trkpt>
      <trkpt lat="45.28646" lon="4.08622">
        <ele>601.8</ele>
        <time>2025-12-03T00:55:05.160Z</time>
      </trkpt>
      <trkpt lat="45.28677" lon="4.08681">
        <ele>594.2</ele>
        <time>2025-12-03T00:55:57.471Z</time>
      </trkpt>
      <trkpt lat="45.28688" lon="4.08733">
        <ele>585.4</ele>
        <time>2025-12-03T00:56:36.895Z</time>
      </trkpt>
      <trkpt lat="45.28696" lon="4.08821">
        <ele>575.9</ele>
        <time>2025-12-03T00:57:39.630Z</time>
      </trkpt>
      <trkpt lat="45.2868" lon="4.08928">
        <ele>570.7</ele>
        <time>2025-12-03T00:58:57.143Z</time>
      </trkpt>
      <trkpt lat="45.28696" lon="4.09082">
        <ele>560.9</ele>
        <time>2025-12-03T01:00:47.248Z</time>
      </trkpt>
      <trkpt lat="45.28726" lon="4.09241">
        <ele>545.3</ele>
        <time>2025-12-03T01:02:43.703Z</time>
      </trkpt>
      <trkpt lat="45.28794" lon="4.09331">
        <ele>530.5</ele>
        <time>2025-12-03T01:04:17.383Z</time>
      </trkpt>
      <trkpt lat="45.28874" lon="4.09405">
        <ele>514.9</ele>
        <time>2025-12-03T01:05:53.773Z</time>
      </trkpt>
      <trkpt lat="45.28875" lon="4.09597">
        <ele>509.5</ele>
        <time>2025-12-03T01:08:09.050Z</time>
      </trkpt>
      <trkpt lat="45.28899" lon="4.09597">
        <ele>513.8</ele>
        <time>2025-12-03T01:08:32.691Z</time>
      </trkpt>
      <trkpt lat="45.28914" lon="4.09614">
        <ele>515.7</ele>
        <time>2025-12-03T01:08:51.931Z</time>
      </trkpt>
      <trkpt lat="45.2893" lon="4.09799">
        <ele>506.7</ele>
        <time>2025-12-03T01:11:03.009Z</time>
      </trkpt>
      <trkpt lat="45.2896" lon="4.09849">
        <ele>509.3</ele>
        <time>2025-12-03T01:11:49.442Z</time>
      </trkpt>
      <trkpt lat="45.2892" lon="4.09953">
        <ele>526.2</ele>
        <time>2025-12-03T01:13:14.432Z</time>
      </trkpt>
      <trkpt lat="45.28842" lon="4.10174">
        <ele>530.7</ele>
        <time>2025-12-03T01:16:08.758Z</time>
      </trkpt>
      <trkpt lat="45.28886" lon="4.10218">
        <ele>538.7</ele>
        <time>2025-12-03T01:17:03.124Z</time>
      </trkpt>
      <trkpt lat="45.28939" lon="4.10368">
        <ele>535.6</ele>
        <time>2025-12-03T01:19:01.309Z</time>
      </trkpt>
      <trkpt lat="45.28975" lon="4.10419">
        <ele>535.1</ele>
        <time>2025-12-03T01:19:52.108Z</time>
      </trkpt>
      <trkpt lat="45.29006" lon="4.10505">
        <ele>526.6</ele>
        <time>2025-12-03T01:21:00.640Z</time>
      </trkpt>
      <trkpt lat="45.2906" lon="4.10544">
        <ele>521.8</ele>
        <time>2025-12-03T01:22:01.404Z</time>
      </trkpt>
      <trkpt lat="45.29153" lon="4.10584">
        <ele>510.5</ele>
        <time>2025-12-03T01:23:39.293Z</time>
      </trkpt>
      <trkpt lat="45.2932" lon="4.1058">
        <ele>509.4</ele>
        <time>2025-12-03T01:26:25.741Z</time>
      </trkpt>
      <trkpt lat="45.2949" lon="4.10636">
        <ele>504.5</ele>
        <time>2025-12-03T01:29:20.702Z</time>
      </trkpt>
      <trkpt lat="45.29584" lon="4.10664">
        <ele>503.8</ele>
        <time>2025-12-03T01:30:56.574Z</time>
      </trkpt>
      <trkpt lat="45.29661" lon="4.10671">
        <ele>495.5</ele>
        <time>2025-12-03T01:32:14.050Z</time>
      </trkpt>
      <trkpt lat="45.29697" lon="4.10725">
        <ele>489.5</ele>
        <time>2025-12-03T01:33:07.210Z</time>
      </trkpt>
      <trkpt lat="45.29804" lon="4.10711">
        <ele>480.1</ele>
        <time>2025-12-03T01:34:54.994Z</time>
      </trkpt>
      <trkpt lat="45.29895" lon="4.10706">
        <ele>473.4</ele>
        <time>2025-12-03T01:36:26.629Z</time>
      </trkpt>
      <trkpt lat="45.29961" lon="4.10722">
        <ele>472</ele>
        <time>2025-12-03T01:37:32.911Z</time>
      </trkpt>
      <trkpt lat="45.30016" lon="4.10713">
        <ele>472.2</ele>
        <time>2025-12-03T01:38:28.928Z</time>
      </trkpt>
      <trkpt lat="45.30054" lon="4.10744">
        <ele>471.1</ele>
        <time>2025-12-03T01:39:12.559Z</time>
      </trkpt>
      <trkpt lat="45.30075" lon="4.10809">
        <ele>468.8</ele>
        <time>2025-12-03T01:40:03.625Z</time>
      </trkpt>
      <trkpt lat="45.30102" lon="4.10825">
        <ele>468.3</ele>
        <time>2025-12-03T01:40:32.498Z</time>
      </trkpt>
      <trkpt lat="45.30107" lon="4.10896">
        <ele>465.8</ele>
        <time>2025-12-03T01:41:23.014Z</time>
      </trkpt>
      <trkpt lat="45.30036" lon="4.11004">
        <ele>462.3</ele>
        <time>2025-12-03T01:43:07.379Z</time>
      </trkpt>
      <trkpt lat="45.30055" lon="4.11116">
        <ele>459.9</ele>
        <time>2025-12-03T01:44:28.621Z</time>
      </trkpt>
      <trkpt lat="45.30015" lon="4.11147">
        <ele>458.7</ele>
        <time>2025-12-03T01:45:14.076Z</time>
      </trkpt>
      <trkpt lat="45.30033" lon="4.11238">
        <ele>456.4</ele>
        <time>2025-12-03T01:46:20.797Z</time>
      </trkpt>
      <trkpt lat="45.30074" lon="4.11406">
        <ele>452.5</ele>
        <time>2025-12-03T01:48:25.959Z</time>
      </trkpt>
      <trkpt lat="45.30161" lon="4.11413">
        <ele>452.1</ele>
        <time>2025-12-03T01:49:52.376Z</time>
      </trkpt>
      <trkpt lat="45.30202" lon="4.11414">
        <ele>451.6</ele>
        <time>2025-12-03T01:50:33.620Z</time>
      </trkpt>
      <trkpt lat="45.30273" lon="4.11398">
        <ele>451.1</ele>
        <time>2025-12-03T01:51:45.436Z</time>
      </trkpt>
      <trkpt lat="45.30294" lon="4.11501">
        <ele>447.5</ele>
        <time>2025-12-03T01:53:00.826Z</time>
      </trkpt>
      <trkpt lat="45.30349" lon="4.11515">
        <ele>446.9</ele>
        <time>2025-12-03T01:53:56.696Z</time>
      </trkpt>
      <trkpt lat="45.30446" lon="4.11493">
        <ele>447.9</ele>
        <time>2025-12-03T01:55:35.617Z</time>
      </trkpt>
      <trkpt lat="45.30526" lon="4.11452">
        <ele>447.7</ele>
        <time>2025-12-03T01:57:00.555Z</time>
      </trkpt>
      <trkpt lat="45.30533" lon="4.11509">
        <ele>445.2</ele>
        <time>2025-12-03T01:57:41.619Z</time>
      </trkpt>
    </trkseg>
  </trk>
</gpx>